createdAt,value
2022-09-28T00:01:50.578Z,4.20
2022-09-28T00:04:25.199Z,2.60
2022-09-28T00:06:53.693Z,1.80
2022-09-28T00:09:31.990Z,3.70
2022-09-28T00:15:38.877Z,3.10
2022-09-28T00:18:10.769Z,2.20
2022-09-28T00:20:44.243Z,3.00
2022-09-28T00:23:14.621Z,4.90
2022-09-28T00:25:44.101Z,4.20
2022-09-28T00:28:11.328Z,2.50
2022-09-28T00:30:38.629Z,2.30
2022-09-28T00:33:06.931Z,2.40
2022-09-28T00:35:48.100Z,2.10
2022-09-28T00:38:17.055Z,2.20
2022-09-28T00:40:48.692Z,2.00
2022-09-28T00:43:28.530Z,2.30
2022-09-28T00:46:03.187Z,2.90
2022-09-28T00:48:43.621Z,2.80
2022-09-28T00:54:04.347Z,3.10
2022-09-28T00:56:54.005Z,2.90
2022-09-28T00:59:34.141Z,2.00
2022-09-28T01:02:05.268Z,2.70
2022-09-28T01:04:36.305Z,3.80
2022-09-28T01:07:12.304Z,2.40
2022-09-28T01:09:45.292Z,2.70
2022-09-28T01:12:17.317Z,3.30
2022-09-28T01:14:49.558Z,2.30
2022-09-28T01:17:28.533Z,2.00
2022-09-28T01:20:29.302Z,3.00
2022-09-28T01:23:16.073Z,1.90
2022-09-28T01:29:50.140Z,3.70
2022-09-28T01:32:56.394Z,2.30
2022-09-28T01:35:43.502Z,4.70
2022-09-28T01:38:38.309Z,4.00
2022-09-28T01:41:13.826Z,3.60
2022-09-28T01:43:51.786Z,2.10
2022-09-28T01:46:33.213Z,3.20
2022-09-28T01:49:16.787Z,3.10
2022-09-28T01:51:55.466Z,2.70
2022-09-28T01:54:41.657Z,2.20
2022-09-28T01:57:22.565Z,2.50
2022-09-28T02:00:23.373Z,2.10
2022-09-28T02:03:28.205Z,1.90
2022-09-28T02:06:32.857Z,2.30
2022-09-28T02:09:10.182Z,3.00
2022-09-28T02:11:49.233Z,3.30
2022-09-28T02:14:27.023Z,1.80
2022-09-28T02:17:08.482Z,3.00
2022-09-28T02:19:41.787Z,2.00
2022-09-28T02:23:11.342Z,1.70
2022-09-28T02:25:49.236Z,3.40
2022-09-28T02:28:51.954Z,2.50
2022-09-28T02:31:21.183Z,2.10
2022-09-28T02:33:54.650Z,2.20
2022-09-28T02:36:27.123Z,2.50
2022-09-28T02:38:59.958Z,3.50
2022-09-28T02:42:12.952Z,2.10
2022-09-28T02:48:42.735Z,2.80
2022-09-28T02:51:35.082Z,2.80
2022-09-28T02:54:45.803Z,1.80
2022-09-28T02:57:55.416Z,2.00
2022-09-28T03:00:25.789Z,2.20
2022-09-28T03:03:49.070Z,2.50
2022-09-28T03:06:30.992Z,2.60
2022-09-28T03:09:04.334Z,2.40
2022-09-28T03:11:39.841Z,3.90
2022-09-28T03:14:28.980Z,1.90
2022-09-28T03:16:59.824Z,2.90
2022-09-28T03:22:15.260Z,2.80
2022-09-28T03:24:46.661Z,2.80
2022-09-28T03:27:21.455Z,2.30
2022-09-28T03:29:52.051Z,1.90
2022-09-28T03:32:31.879Z,2.90
2022-09-28T03:35:21.057Z,1.60
2022-09-28T03:37:52.373Z,2.20
2022-09-28T03:43:05.883Z,2.40
2022-09-28T03:45:53.669Z,2.00
2022-09-28T03:48:31.229Z,2.50
2022-09-28T03:51:08.603Z,2.40
2022-09-28T03:53:38.060Z,2.10
2022-09-28T03:56:16.920Z,1.80
2022-09-28T03:58:49.004Z,3.10
2022-09-28T04:01:18.029Z,2.10
2022-09-28T04:03:57.593Z,2.50
2022-09-28T04:06:33.327Z,2.30
2022-09-28T04:09:02.233Z,2.10
2022-09-28T04:11:59.496Z,2.60
2022-09-28T04:14:22.803Z,2.00
2022-09-28T04:16:59.268Z,1.90
2022-09-28T04:19:42.589Z,2.00
2022-09-28T04:22:23.465Z,2.10
2022-09-28T04:25:01.025Z,1.50
2022-09-28T04:27:48.766Z,2.10
2022-09-28T04:30:19.223Z,2.60
2022-09-28T04:33:01.262Z,2.10
2022-09-28T04:35:39.013Z,1.90
2022-09-28T04:38:08.508Z,2.90
2022-09-28T04:40:36.952Z,3.10
2022-09-28T04:43:30.085Z,2.20
2022-09-28T04:46:09.850Z,1.80
2022-09-28T04:48:46.831Z,2.30
2022-09-28T04:51:37.850Z,2.30
2022-09-28T04:54:08.492Z,1.90
2022-09-28T04:56:59.993Z,1.90
2022-09-28T04:59:33.293Z,2.40
2022-09-28T05:02:26.996Z,1.90
2022-09-28T05:05:16.079Z,2.00
2022-09-28T05:08:24.124Z,1.70
2022-09-28T05:11:01.281Z,1.80
2022-09-28T05:13:31.078Z,1.90
2022-09-28T05:16:16.597Z,2.70
2022-09-28T05:19:02.820Z,2.00
2022-09-28T05:21:34.895Z,1.90
2022-09-28T05:24:07.917Z,2.10
2022-09-28T05:26:38.727Z,3.80
2022-09-28T05:32:45.017Z,10.10
2022-09-28T05:35:21.367Z,2.90
2022-09-28T05:37:49.610Z,4.10
2022-09-28T05:40:17.079Z,3.20
2022-09-28T05:42:44.129Z,3.20
2022-09-28T05:45:12.877Z,2.50
2022-09-28T05:47:43.432Z,3.70
2022-09-28T05:50:12.614Z,3.70
2022-09-28T05:52:40.696Z,2.70
2022-09-28T05:55:09.301Z,7.00
2022-09-28T05:57:36.327Z,7.10
2022-09-28T06:00:09.135Z,5.80
2022-09-28T06:02:56.291Z,6.10
2022-09-28T06:05:23.895Z,2.90
2022-09-28T06:07:50.809Z,4.90
2022-09-28T06:10:17.778Z,3.90
2022-09-28T06:12:45.755Z,4.10
2022-09-28T06:15:15.736Z,6.60
2022-09-28T06:17:44.021Z,5.60
2022-09-28T06:20:35.825Z,3.10
2022-09-28T06:23:14.046Z,2.90
2022-09-28T06:25:41.380Z,6.40
2022-09-28T06:28:13.913Z,3.90
2022-09-28T06:30:42.862Z,2.40
2022-09-28T06:33:14.606Z,4.30
2022-09-28T06:35:42.493Z,5.70
2022-09-28T06:38:09.639Z,4.40
2022-09-28T06:40:38.553Z,3.90
2022-09-28T06:43:12.673Z,2.60
2022-09-28T06:45:58.413Z,3.10
2022-09-28T06:48:25.562Z,3.40
2022-09-28T06:50:52.655Z,3.00
2022-09-28T06:53:34.203Z,2.50
2022-09-28T06:56:19.660Z,3.10
2022-09-28T06:58:46.800Z,2.40
2022-09-28T07:01:14.204Z,3.00
2022-09-28T07:03:58.122Z,3.70
2022-09-28T07:06:48.183Z,1.80
2022-09-28T07:09:49.371Z,2.60
2022-09-28T07:12:27.818Z,4.60
2022-09-28T07:15:04.005Z,2.00
2022-09-28T07:17:36.124Z,3.70
2022-09-28T07:20:17.225Z,3.70
2022-09-28T07:22:48.085Z,3.00
2022-09-28T07:25:19.191Z,2.80
2022-09-28T07:27:47.331Z,3.70
2022-09-28T07:30:35.740Z,2.70
2022-09-28T07:33:14.620Z,9.50
2022-09-28T07:36:06.877Z,10.20
2022-09-28T07:38:34.541Z,9.90
2022-09-28T07:41:14.437Z,13.70
2022-09-28T07:43:50.008Z,13.10
2022-09-28T07:46:17.786Z,11.20
2022-09-28T07:48:54.998Z,14.90
2022-09-28T07:51:31.132Z,8.00
2022-09-28T07:54:18.100Z,7.50
2022-09-28T07:57:21.625Z,8.40
2022-09-28T08:00:00.743Z,10.30
2022-09-28T08:02:44.212Z,6.20
2022-09-28T08:05:12.914Z,9.90
2022-09-28T08:07:40.060Z,7.60
2022-09-28T08:10:09.259Z,6.00
2022-09-28T08:12:47.434Z,7.40
2022-09-28T08:15:36.301Z,8.20
2022-09-28T08:18:11.465Z,5.40
2022-09-28T08:20:57.001Z,10.60
2022-09-28T08:23:24.153Z,8.40
2022-09-28T08:25:56.700Z,7.60
2022-09-28T08:28:24.844Z,9.70
2022-09-28T08:30:55.309Z,9.50
2022-09-28T08:33:31.364Z,8.90
2022-09-28T08:36:16.825Z,9.20
2022-09-28T08:39:01.853Z,8.90
2022-09-28T08:42:21.218Z,9.00
2022-09-28T08:45:19.875Z,13.10
2022-09-28T08:48:56.176Z,6.00
2022-09-28T08:52:00.280Z,9.70
2022-09-28T08:55:06.226Z,6.20
2022-09-28T08:58:02.524Z,8.80
2022-09-28T09:00:49.156Z,4.50
2022-09-28T09:03:25.596Z,4.80
2022-09-28T09:06:48.289Z,5.90
2022-09-28T09:10:22.932Z,6.20
2022-09-28T09:12:54.831Z,4.80
2022-09-28T09:15:50.805Z,6.20
2022-09-28T09:18:45.487Z,5.50
2022-09-28T09:22:02.215Z,8.30
2022-09-28T09:24:38.940Z,6.60
2022-09-28T09:27:14.476Z,3.80
2022-09-28T09:29:41.415Z,6.60
2022-09-28T09:33:07.128Z,5.00
2022-09-28T09:35:59.177Z,9.80
2022-09-28T09:38:55.356Z,8.50
2022-09-28T09:41:53.259Z,11.40
2022-09-28T09:44:59.980Z,11.30
2022-09-28T09:48:07.895Z,11.10
2022-09-28T09:50:40.768Z,10.50
2022-09-28T09:53:27.053Z,7.50
2022-09-28T09:56:00.148Z,8.80
2022-09-28T09:58:37.093Z,10.20
2022-09-28T10:01:39.399Z,6.00
2022-09-28T10:04:31.120Z,7.70
2022-09-28T10:07:04.704Z,5.50
2022-09-28T10:09:39.235Z,4.80
2022-09-28T10:12:22.984Z,4.70
2022-09-28T10:14:50.764Z,7.50
2022-09-28T10:17:20.206Z,4.10
2022-09-28T10:20:06.822Z,4.50
2022-09-28T10:22:56.957Z,4.20
2022-09-28T10:25:25.392Z,4.90
2022-09-28T10:27:52.848Z,5.90
2022-09-28T10:30:25.506Z,4.90
2022-09-28T10:32:59.153Z,3.90
2022-09-28T10:35:39.647Z,6.30
2022-09-28T10:38:12.360Z,9.50
2022-09-28T10:40:48.170Z,8.10
2022-09-28T10:43:36.022Z,7.50
2022-09-28T10:46:08.392Z,8.40
2022-09-28T10:48:59.761Z,9.70
2022-09-28T10:51:51.787Z,8.40
2022-09-28T10:54:28.450Z,9.30
2022-09-28T10:56:59.124Z,8.20
2022-09-28T10:59:53.351Z,6.30
2022-09-28T11:02:38.351Z,8.20
2022-09-28T11:05:22.259Z,8.20
2022-09-28T11:07:52.567Z,8.40
2022-09-28T11:10:29.109Z,6.70
2022-09-28T11:13:01.051Z,7.00
2022-09-28T11:15:33.665Z,5.90
2022-09-28T11:18:26.117Z,5.20
2022-09-28T11:20:53.097Z,5.50
2022-09-28T11:23:26.695Z,4.60
2022-09-28T11:26:04.629Z,6.60
2022-09-28T11:28:34.619Z,7.60
2022-09-28T11:31:09.125Z,4.30
2022-09-28T11:34:13.743Z,8.40
2022-09-28T11:37:13.732Z,3.00
2022-09-28T11:40:05.734Z,6.80
2022-09-28T11:42:49.282Z,4.40
2022-09-28T11:45:16.204Z,5.40
2022-09-28T11:48:02.876Z,7.20
2022-09-28T11:50:42.523Z,6.40
2022-09-28T11:53:26.648Z,8.60
2022-09-28T11:56:15.982Z,6.20
2022-09-28T11:59:05.891Z,10.60
2022-09-28T12:01:47.004Z,24.00
2022-09-28T12:04:32.550Z,26.60
2022-09-28T12:07:25.250Z,28.40
2022-09-28T12:09:58.132Z,27.20
2022-09-28T12:12:32.834Z,27.20
2022-09-28T12:16:11.531Z,26.20
2022-09-28T12:19:08.312Z,24.40
2022-09-28T12:21:42.730Z,22.30
2022-09-28T12:24:21.815Z,20.90
2022-09-28T12:27:05.105Z,26.20
2022-09-28T12:29:47.578Z,27.20
2022-09-28T12:32:17.252Z,25.20
2022-09-28T12:34:44.509Z,28.70
2022-09-28T12:37:27.437Z,31.20
2022-09-28T12:40:06.787Z,25.70
2022-09-28T12:42:46.184Z,21.90
2022-09-28T12:45:38.642Z,19.70
2022-09-28T12:48:32.349Z,26.80
2022-09-28T12:51:18.523Z,16.90
2022-09-28T12:54:23.103Z,19.00
2022-09-28T12:57:03.390Z,15.50
2022-09-28T12:59:39.347Z,17.80
2022-09-28T13:02:26.205Z,16.70
2022-09-28T13:05:12.448Z,17.70
2022-09-28T13:07:50.169Z,17.30
2022-09-28T13:10:34.063Z,20.10
2022-09-28T13:13:23.370Z,15.10
2022-09-28T13:16:08.174Z,14.10
2022-09-28T13:18:48.348Z,17.70
2022-09-28T13:21:30.413Z,20.10
2022-09-28T13:24:14.361Z,18.80
2022-09-28T13:26:48.259Z,15.40
2022-09-28T13:29:18.627Z,17.40
2022-09-28T13:31:50.708Z,12.90
2022-09-28T13:34:22.696Z,16.00
2022-09-28T13:37:28.519Z,13.80
2022-09-28T13:39:58.464Z,11.40
2022-09-28T13:42:55.343Z,16.30
2022-09-28T13:45:38.552Z,13.10
2022-09-28T13:48:14.773Z,14.70
2022-09-28T13:50:53.794Z,12.70
2022-09-28T13:53:35.798Z,11.30
2022-09-28T13:56:27.219Z,13.80
2022-09-28T13:59:01.556Z,13.70
2022-09-28T14:01:42.739Z,11.10
2022-09-28T14:04:20.637Z,10.60
2022-09-28T14:06:55.960Z,12.10
2022-09-28T14:09:27.499Z,12.40
2022-09-28T14:12:03.196Z,11.90
2022-09-28T14:14:47.433Z,10.20
2022-09-28T14:17:26.074Z,10.30
2022-09-28T14:20:08.013Z,12.70
2022-09-28T14:22:58.032Z,13.60
2022-09-28T14:25:28.358Z,9.30
2022-09-28T14:28:01.576Z,11.20
2022-09-28T14:30:53.728Z,13.30
2022-09-28T14:33:20.644Z,10.60
2022-09-28T14:35:58.374Z,11.20
2022-09-28T14:39:08.658Z,11.50
2022-09-28T14:41:39.782Z,10.40
2022-09-28T14:44:11.334Z,10.20
2022-09-28T14:46:45.964Z,11.40
2022-09-28T14:49:19.770Z,11.50
2022-09-28T14:51:58.538Z,9.60
2022-09-28T14:54:38.537Z,9.70
2022-09-28T14:57:15.497Z,8.30
2022-09-28T14:59:46.396Z,7.70
2022-09-28T15:02:29.903Z,9.20
2022-09-28T15:05:09.767Z,7.20
2022-09-28T15:07:46.248Z,7.50
2022-09-28T15:10:27.652Z,10.10
2022-09-28T15:12:56.956Z,8.50
2022-09-28T15:15:40.944Z,10.40
2022-09-28T15:18:36.671Z,6.70
2022-09-28T15:21:04.289Z,7.00
2022-09-28T15:23:39.378Z,7.50
2022-09-28T15:26:08.614Z,6.70
2022-09-28T15:28:39.528Z,6.00
2022-09-28T15:31:06.541Z,8.20
2022-09-28T15:33:53.426Z,6.30
2022-09-28T15:36:24.539Z,10.70
2022-09-28T15:39:01.800Z,7.10
2022-09-28T15:41:29.360Z,7.40
2022-09-28T15:44:36.699Z,6.00
2022-09-28T15:47:25.100Z,6.80
2022-09-28T15:50:05.003Z,8.20
2022-09-28T15:52:44.941Z,13.90
2022-09-28T15:55:24.320Z,7.80
2022-09-28T15:58:04.072Z,7.00
2022-09-28T16:00:31.855Z,5.70
2022-09-28T16:03:03.808Z,8.90
2022-09-28T16:05:48.442Z,7.00
2022-09-28T16:08:27.436Z,6.30
2022-09-28T16:11:04.873Z,6.90
2022-09-28T16:13:32.265Z,8.20
2022-09-28T16:16:00.437Z,9.60
2022-09-28T16:18:29.614Z,8.00
2022-09-28T16:21:20.208Z,9.00
2022-09-28T16:23:52.724Z,14.50
2022-09-28T16:26:32.279Z,8.60
2022-09-28T16:29:00.558Z,8.20
2022-09-28T16:31:34.802Z,7.00
2022-09-28T16:34:20.309Z,8.80
2022-09-28T16:36:49.342Z,6.80
2022-09-28T16:39:18.353Z,9.00
2022-09-28T16:41:52.289Z,6.80
2022-09-28T16:44:24.153Z,8.80
2022-09-28T16:46:55.840Z,7.50
2022-09-28T16:49:25.860Z,7.40
2022-09-28T16:51:53.811Z,10.60
2022-09-28T16:54:42.049Z,7.30
2022-09-28T16:57:12.741Z,6.10
2022-09-28T16:59:39.907Z,8.30
2022-09-28T17:05:13.682Z,7.60
2022-09-28T17:07:40.791Z,6.10
2022-09-28T17:10:21.901Z,7.80
2022-09-28T17:12:48.942Z,7.00
2022-09-28T17:15:18.790Z,6.00
2022-09-28T17:17:47.248Z,6.80
2022-09-28T17:20:27.464Z,6.90
2022-09-28T17:22:54.409Z,6.40
2022-09-28T17:25:24.281Z,6.70
2022-09-28T17:27:55.528Z,6.80
2022-09-28T17:30:23.780Z,6.10
2022-09-28T17:32:53.835Z,6.70
2022-09-28T17:35:25.457Z,5.80
2022-09-28T17:37:52.754Z,6.40
2022-09-28T17:40:22.841Z,7.20
2022-09-28T17:42:49.881Z,5.60
2022-09-28T17:45:18.341Z,5.10
2022-09-28T17:47:47.259Z,7.10
2022-09-28T17:50:23.218Z,5.10
2022-09-28T17:52:56.546Z,4.80
2022-09-28T17:55:32.485Z,6.90
2022-09-28T17:58:01.567Z,10.00
2022-09-28T18:00:30.724Z,6.80
2022-09-28T18:02:58.712Z,5.40
2022-09-28T18:05:31.371Z,5.30
2022-09-28T18:07:58.948Z,4.90
2022-09-28T18:10:29.204Z,6.70
2022-09-28T18:12:57.818Z,6.20
2022-09-28T18:15:24.718Z,5.20
2022-09-28T18:17:51.963Z,6.10
2022-09-28T18:20:20.742Z,8.10
2022-09-28T18:22:49.486Z,5.60
2022-09-28T18:25:18.949Z,6.80
2022-09-28T18:27:45.983Z,6.80
2022-09-28T18:30:15.204Z,3.60
2022-09-28T18:32:44.285Z,6.90
2022-09-28T18:35:13.578Z,6.00
2022-09-28T18:37:41.095Z,6.00
2022-09-28T18:40:13.078Z,5.50
2022-09-28T18:42:40.932Z,5.40
2022-09-28T18:45:15.363Z,6.10
2022-09-28T18:47:42.583Z,6.90
2022-09-28T18:50:17.329Z,6.20
2022-09-28T18:52:45.392Z,4.00
2022-09-28T18:55:13.149Z,3.70
2022-09-28T18:57:43.557Z,5.20
2022-09-28T19:00:17.265Z,7.80
2022-09-28T19:02:45.763Z,6.00
2022-09-28T19:05:14.048Z,4.90
2022-09-28T19:07:44.545Z,5.60
2022-09-28T19:10:12.624Z,5.00
2022-09-28T19:12:46.270Z,5.90
2022-09-28T19:15:15.275Z,6.70
2022-09-28T19:17:46.989Z,5.70
2022-09-28T19:20:14.331Z,5.90
2022-09-28T19:22:45.334Z,7.20
2022-09-28T19:25:14.933Z,5.80
2022-09-28T19:27:42.050Z,5.00
2022-09-28T19:30:13.053Z,5.40
2022-09-28T19:32:44.935Z,5.40
2022-09-28T19:35:14.010Z,6.10
2022-09-28T19:37:44.546Z,5.60
2022-09-28T19:40:12.573Z,5.50
2022-09-28T19:42:40.918Z,6.10
2022-09-28T19:45:11.016Z,5.90
2022-09-28T19:47:44.023Z,7.80
2022-09-28T19:50:11.543Z,4.40
2022-09-28T19:52:41.709Z,8.00
2022-09-28T19:55:12.485Z,10.00
2022-09-28T19:57:42.494Z,4.70
2022-09-28T20:00:11.770Z,5.10
2022-09-28T20:02:44.094Z,4.80
2022-09-28T20:05:12.008Z,6.70
2022-09-28T20:07:42.166Z,5.10
2022-09-28T20:10:12.341Z,5.20
2022-09-28T20:12:44.427Z,6.80
2022-09-28T20:15:13.771Z,6.90
2022-09-28T20:17:42.796Z,4.70
2022-09-28T20:20:10.143Z,6.10
2022-09-28T20:22:38.708Z,4.90
2022-09-28T20:25:06.525Z,6.50
2022-09-28T20:27:35.406Z,5.90
2022-09-28T20:30:06.838Z,7.30
2022-09-28T20:32:37.579Z,5.00
2022-09-28T20:35:07.137Z,4.30
2022-09-28T20:37:36.083Z,6.10
2022-09-28T20:40:07.682Z,4.00
2022-09-28T20:42:37.652Z,7.40
2022-09-28T20:45:07.391Z,4.10
2022-09-28T20:47:35.644Z,5.90
2022-09-28T20:50:06.075Z,6.70
2022-09-28T20:52:33.050Z,6.20
2022-09-28T20:55:02.230Z,4.00
2022-09-28T20:57:31.363Z,6.00
2022-09-28T20:59:59.500Z,5.00
2022-09-28T21:02:28.795Z,6.10
2022-09-28T21:04:56.261Z,4.50
2022-09-28T21:07:23.388Z,5.20
2022-09-28T21:09:50.783Z,3.70
2022-09-28T21:12:20.125Z,4.60
2022-09-28T21:14:47.869Z,6.30
2022-09-28T21:17:15.413Z,5.40
2022-09-28T21:19:43.425Z,5.40
2022-09-28T21:22:16.379Z,4.40
2022-09-28T21:24:44.044Z,5.60
2022-09-28T21:27:13.813Z,4.20
2022-09-28T21:29:41.957Z,5.70
2022-09-28T21:32:09.529Z,3.50
2022-09-28T21:34:39.562Z,4.50
2022-09-28T21:37:08.244Z,4.90
2022-09-28T21:39:35.681Z,5.40
2022-09-28T21:42:03.614Z,4.60
2022-09-28T21:44:31.115Z,4.30
2022-09-28T21:46:58.933Z,3.80
2022-09-28T21:49:26.152Z,4.00
2022-09-28T21:51:53.406Z,5.20
2022-09-28T21:54:21.469Z,4.30
2022-09-28T21:56:48.838Z,3.40
2022-09-28T21:59:15.997Z,3.90
2022-09-28T22:01:44.478Z,5.70
2022-09-28T22:04:11.711Z,6.60
2022-09-28T22:06:39.113Z,5.80
2022-09-28T22:09:06.124Z,3.80
2022-09-28T22:11:33.051Z,5.90
2022-09-28T22:14:00.748Z,4.50
2022-09-28T22:16:30.169Z,4.80
2022-09-28T22:18:58.056Z,4.60
2022-09-28T22:21:33.470Z,5.10
2022-09-28T22:24:02.928Z,3.90
2022-09-28T22:26:31.940Z,5.40
2022-09-28T22:29:04.431Z,8.40
2022-09-28T22:31:34.037Z,4.40
2022-09-28T22:34:02.157Z,5.70
2022-09-28T22:36:30.038Z,6.40
2022-09-28T22:38:57.999Z,4.80
2022-09-28T22:41:25.491Z,5.10
2022-09-28T22:43:53.883Z,4.90
2022-09-28T22:46:23.624Z,3.30
2022-09-28T22:48:53.243Z,3.80
2022-09-28T22:51:21.050Z,7.10
2022-09-28T22:53:48.077Z,5.10
2022-09-28T22:56:18.767Z,4.30
2022-09-28T22:58:46.634Z,4.40
2022-09-28T23:01:15.977Z,4.10
2022-09-28T23:03:44.861Z,3.50
2022-09-28T23:06:14.233Z,4.70
2022-09-28T23:08:41.163Z,3.80
2022-09-28T23:11:08.768Z,4.30
2022-09-28T23:13:35.757Z,4.40
2022-09-28T23:16:11.413Z,6.40
2022-09-28T23:18:42.632Z,4.70
2022-09-28T23:21:17.828Z,3.60
2022-09-28T23:23:46.367Z,5.40
2022-09-28T23:26:18.879Z,4.80
2022-09-28T23:28:46.129Z,4.60
2022-09-28T23:31:23.256Z,3.90
2022-09-28T23:33:51.035Z,5.60
2022-09-28T23:36:21.277Z,3.50
2022-09-28T23:38:48.267Z,3.00
2022-09-28T23:41:15.299Z,3.00
2022-09-28T23:43:42.319Z,4.20
2022-09-28T23:46:09.326Z,4.00
2022-09-28T23:48:36.562Z,3.40
2022-09-28T23:51:03.777Z,3.10
2022-09-28T23:53:32.422Z,3.30
2022-09-28T23:55:59.713Z,2.80
2022-09-28T23:58:27.761Z,3.40
